Ana Sayfa
METAR-TAF:

METAR-TAF

Havaalanları :

Konya Havalimanı

Konya, Türkiye

Enlem: 37-58N, Boylam: 032-33E, yükseklik: 1032 m

Güncel hava durumu gözlemi

Rapor saat 15:50 UTC de 39 dakika önce yapıldı.
Rüzgar kuzeydan 10 kt
Sıcaklık 25°C
Nem 34%
Basınç 1018 hPa
Görüş mesafesi 10 km veya daha fazla
4000 ft yükseklikte az bulutlu

METAR: LTAN 231550Z 35010KT 9999 FEW040 25/08 Q1018 NOSIG

Saat: 19:29 (16:29 UTC)

Tahmin

Rapor saat 13:40 UTC de 2 saat ve 49 dakika önce yapıldı.
Ayın 23'si saat 15 UTC'den ayın 23'si saat 24 UTC'ye kadar geçerli Tahmin
Rüzgar kuzey/kuzeydoğudan 9 kt
Görüş mesafesi 10 km veya daha fazla
4000 ft yükseklikte parçalı bulutlu
Dönüşüyor
ayın 23'si saat 18 UTC'den ayın 23'si saat 21 UTC'ye kadar
Görüş mesafesi 10 km veya daha fazla
1500 m altında bulut yok ve kümülonimbus yok

TAF: LTAN 231340Z 2315/2324 02009KT 9999 SCT040 BECMG 2318/2321 CAVOK

4.000'den fazla havaalanı için hava durumu gözlemleri ve tahminleri (METAR ve TAF raporları).

Kullanılabilir istasyonlar harita üzerinde sarı ve kırmızı noktalarla gösterilir.

İstasyonun adını görmek için fareyi noktanın üzerinde gezdirin.

Sonrasında hava gözlem ve tahminlerini görmek için tıklayın.

Haritayı değiştirmek için: yaklaştırmak için siyah artı işaretli yeşil düğmeye ve uzaklaştırmak için de eksi işaretli düğmeye hızla tıklayın; bitişik haritalar için yeşil okları kullanın.


METAR-TAF: